Time;durP1;ratioP1;P1;durP2;ratioP2;P2;SDS_P1;SDS_P2;PMS_P1;PMS_P2;Temp;Humidity;BMP_temperature;BMP_pressure;BME280_temperature;BME280_humidity;BME280_pressure;Samples;Min_cycle;Max_cycle;Signal;HPM_P1;HPM_P2
2021/07/30 00:00:30;;;;;;;1.40;1.30;;;12.50;86.30;;;;;;2074064;28;20188;-67
2021/07/30 00:01:31;;;;;;;1.83;1.33;;;12.50;86.20;;;;;;2071439;28;20271;-67
2021/07/30 00:02:33;;;;;;;1.37;1.17;;;12.40;86.00;;;;;;2080730;23;20237;-71
2021/07/30 00:03:33;;;;;;;1.10;1.02;;;12.40;86.00;;;;;;2055243;28;20174;-70
2021/07/30 00:04:34;;;;;;;1.00;1.00;;;12.40;86.20;;;;;;2047678;29;20283;-70
2021/07/30 00:05:35;;;;;;;1.93;1.20;;;12.40;86.10;;;;;;2048204;28;20184;-71
2021/07/30 00:06:36;;;;;;;0.83;0.83;;;12.40;86.10;;;;;;2055819;28;20429;-71
2021/07/30 00:07:36;;;;;;;1.43;1.33;;;12.30;86.10;;;;;;2055387;28;20175;-71
2021/07/30 00:08:37;;;;;;;2.00;1.80;;;12.30;86.50;;;;;;2047726;29;20233;-71
2021/07/30 00:09:38;;;;;;;1.17;1.07;;;12.30;86.80;;;;;;2056161;28;20206;-71
2021/07/30 00:10:38;;;;;;;2.43;1.43;;;12.30;86.80;;;;;;2056722;28;20183;-71
2021/07/30 00:11:41;;;;;;;1.43;1.33;;;12.30;86.60;;;;;;2058515;28;20208;-71
2021/07/30 00:12:41;;;;;;;1.20;1.20;;;12.30;86.60;;;;;;2047843;29;20278;-71
2021/07/30 00:13:43;;;;;;;1.70;1.60;;;12.30;86.90;;;;;;2048114;29;20175;-70
2021/07/30 00:14:44;;;;;;;1.50;1.40;;;12.30;86.80;;;;;;2048637;29;20183;-71
2021/07/30 00:15:45;;;;;;;1.33;1.23;;;12.30;86.90;;;;;;2048070;29;20199;-72
2021/07/30 00:16:46;;;;;;;1.90;1.50;;;12.30;87.20;;;;;;2048216;29;20527;-71
2021/07/30 00:17:46;;;;;;;1.77;1.67;;;12.20;87.20;;;;;;2055925;28;20183;-70
2021/07/30 00:18:47;;;;;;;2.10;1.93;;;12.20;87.10;;;;;;2056192;28;20638;-71
2021/07/30 00:19:48;;;;;;;0.97;0.97;;;12.20;86.90;;;;;;2056080;28;20179;-71
2021/07/30 00:20:48;;;;;;;0.80;0.80;;;12.20;87.00;;;;;;2048252;29;20183;-70
2021/07/30 00:21:49;;;;;;;1.80;1.70;;;12.20;87.20;;;;;;2048146;29;20586;-73
2021/07/30 00:22:50;;;;;;;13.60;1.87;;;12.10;87.30;;;;;;2048077;28;20282;-70
2021/07/30 00:23:50;;;;;;;1.80;1.43;;;12.20;87.30;;;;;;2047865;29;20202;-73
2021/07/30 00:24:51;;;;;;;1.10;1.00;;;12.10;87.30;;;;;;2048138;29;20235;-70
2021/07/30 00:25:52;;;;;;;1.27;1.23;;;12.10;87.30;;;;;;2040184;29;20923;-73
2021/07/30 00:26:52;;;;;;;2.40;1.43;;;12.20;87.30;;;;;;2046114;28;20237;-72
2021/07/30 00:27:53;;;;;;;2.77;1.90;;;12.20;87.20;;;;;;2051322;28;20609;-72
2021/07/30 00:28:54;;;;;;;3.30;1.93;;;12.20;87.20;;;;;;2054910;28;20229;-72
2021/07/30 00:29:55;;;;;;;5.83;1.40;;;12.10;87.10;;;;;;2039991;29;20734;-72
2021/07/30 00:30:55;;;;;;;2.23;2.03;;;12.10;87.10;;;;;;2031822;29;20200;-72
2021/07/30 00:31:56;;;;;;;0.97;0.97;;;12.20;87.20;;;;;;2031254;29;20556;-72
2021/07/30 00:32:57;;;;;;;1.80;1.47;;;12.10;87.00;;;;;;2032000;29;20205;-72
2021/07/30 00:33:58;;;;;;;1.10;1.00;;;12.10;87.10;;;;;;2032219;29;20264;-72
2021/07/30 00:34:58;;;;;;;1.20;1.10;;;12.10;87.10;;;;;;2032170;29;20188;-71
2021/07/30 00:35:59;;;;;;;1.50;1.40;;;12.10;87.00;;;;;;2024341;29;20216;-72
2021/07/30 00:37:00;;;;;;;1.27;1.17;;;12.10;87.10;;;;;;2032080;29;20205;-72
2021/07/30 00:38:01;;;;;;;1.67;1.37;;;12.10;87.20;;;;;;2040088;29;20184;-71
2021/07/30 00:39:02;;;;;;;2.50;1.60;;;12.10;87.20;;;;;;2032330;29;20181;-72
2021/07/30 00:40:05;;;;;;;1.80;1.65;;;12.10;87.80;;;;;;2032054;29;20189;-71
2021/07/30 00:41:05;;;;;;;2.80;1.33;;;12.00;88.30;;;;;;2032380;29;20192;-72
2021/07/30 00:42:06;;;;;;;3.47;0.87;;;12.00;88.30;;;;;;2039850;29;20188;-72
2021/07/30 00:43:07;;;;;;;3.60;1.87;;;12.00;89.50;;;;;;2048111;29;20243;-71
2021/07/30 00:44:08;;;;;;;1.50;1.40;;;12.00;88.30;;;;;;2040019;29;20224;-72
2021/07/30 00:45:09;;;;;;;1.92;1.33;;;12.00;88.20;;;;;;2039933;29;20180;-72
2021/07/30 00:46:10;;;;;;;3.03;1.33;;;12.00;88.30;;;;;;2047900;29;20693;-72
2021/07/30 00:47:11;;;;;;;1.98;1.65;;;12.00;88.50;;;;;;2047829;29;20208;-72
2021/07/30 00:48:13;;;;;;;3.17;2.17;;;12.00;88.40;;;;;;2047762;28;20185;-72
2021/07/30 00:49:15;;;;;;;1.30;1.20;;;12.00;88.50;;;;;;2040035;29;20184;-72
2021/07/30 00:50:17;;;;;;;2.05;1.42;;;12.00;88.50;;;;;;2032147;29;20192;-72
2021/07/30 00:51:18;;;;;;;1.42;1.33;;;12.00;88.60;;;;;;2032265;29;20181;-72
2021/07/30 00:52:19;;;;;;;1.60;1.43;;;12.00;88.50;;;;;;2032046;29;20228;-71
2021/07/30 00:53:19;;;;;;;2.05;1.73;;;12.00;88.60;;;;;;2039880;29;20185;-72
2021/07/30 00:54:22;;;;;;;1.17;1.03;;;11.90;88.40;;;;;;2040165;29;20173;-72
2021/07/30 00:55:24;;;;;;;2.80;1.55;;;11.90;88.50;;;;;;2049127;29;20633;-71
2021/07/30 00:56:24;;;;;;;1.25;1.23;;;11.90;88.60;;;;;;2041288;28;20210;-71
2021/07/30 00:57:25;;;;;;;1.17;1.07;;;11.90;88.40;;;;;;2041328;29;20203;-71
2021/07/30 00:58:29;;;;;;;1.67;1.57;;;11.90;88.30;;;;;;2041382;29;20208;-72
2021/07/30 00:59:31;;;;;;;1.35;1.25;;;11.90;88.40;;;;;;2034002;29;20195;-74
2021/07/30 01:00:32;;;;;;;1.02;1.02;;;11.90;88.40;;;;;;2043845;29;20184;-71
2021/07/30 01:01:32;;;;;;;2.07;1.77;;;11.90;88.40;;;;;;2047780;29;20223;-71
2021/07/30 01:02:33;;;;;;;2.90;2.30;;;11.90;88.60;;;;;;2047265;29;20200;-72
2021/07/30 01:03:34;;;;;;;1.52;1.42;;;11.80;88.80;;;;;;2041421;29;20671;-72
2021/07/30 01:04:35;;;;;;;1.88;1.77;;;11.80;89.10;;;;;;2041412;29;20183;-73
2021/07/30 01:05:36;;;;;;;4.50;1.67;;;11.80;89.10;;;;;;2042044;29;20278;-72
2021/07/30 01:06:37;;;;;;;2.53;1.92;;;11.70;89.10;;;;;;2041305;29;20635;-72
2021/07/30 01:07:38;;;;;;;1.77;1.67;;;11.80;89.30;;;;;;2033373;29;20276;-73
2021/07/30 01:08:39;;;;;;;1.58;1.48;;;11.70;89.10;;;;;;2033587;29;20184;-72
2021/07/30 01:09:40;;;;;;;2.73;1.83;;;11.70;89.10;;;;;;2033414;29;20636;-72
2021/07/30 01:10:41;;;;;;;1.98;1.75;;;11.70;88.90;;;;;;2041480;29;20231;-72
2021/07/30 01:11:44;;;;;;;3.27;2.23;;;11.70;89.00;;;;;;2041246;29;20208;-71
2021/07/30 01:12:46;;;;;;;1.17;1.10;;;11.70;89.10;;;;;;2033661;29;20498;-72
2021/07/30 01:13:46;;;;;;;1.58;1.48;;;11.70;89.40;;;;;;2033722;29;20723;-72
2021/07/30 01:14:48;;;;;;;1.27;1.20;;;11.70;89.50;;;;;;2041211;29;20181;-75
2021/07/30 01:15:49;;;;;;;2.03;1.85;;;11.70;89.50;;;;;;2041292;29;20251;-72
2021/07/30 01:16:49;;;;;;;1.60;1.23;;;11.70;89.50;;;;;;2033435;29;20264;-72
2021/07/30 01:17:50;;;;;;;1.20;1.10;;;11.70;89.60;;;;;;2041339;29;20267;-72
2021/07/30 01:18:51;;;;;;;1.93;1.43;;;11.60;89.60;;;;;;2049202;28;20270;-71
2021/07/30 01:19:53;;;;;;;1.80;1.60;;;11.60;89.70;;;;;;2041401;29;20231;-72
2021/07/30 01:21:08;;;;;;;4.25;1.85;;;11.50;89.60;;;;;;2033611;29;20261;-73
2021/07/30 01:22:58;;;;;;;3.03;1.65;;;11.50;89.60;;;;;;2027398;29;20182;-73
2021/07/30 01:23:59;;;;;;;1.27;0.98;;;11.50;89.60;;;;;;2036320;29;20214;-72
2021/07/30 01:25:00;;;;;;;2.33;2.23;;;11.50;89.30;;;;;;2041359;29;20191;-72
2021/07/30 01:26:00;;;;;;;3.00;1.70;;;11.50;89.20;;;;;;2041294;29;20195;-72
2021/07/30 01:27:01;;;;;;;1.53;1.43;;;11.50;89.20;;;;;;2033301;29;20184;-72
2021/07/30 01:28:02;;;;;;;1.90;1.80;;;11.50;89.20;;;;;;2033350;29;20630;-72
2021/07/30 01:29:03;;;;;;;1.10;1.00;;;11.50;89.20;;;;;;2033376;29;20754;-73
2021/07/30 01:30:04;;;;;;;1.70;1.60;;;11.50;89.20;;;;;;2041175;29;20196;-72
2021/07/30 01:31:05;;;;;;;1.17;1.10;;;11.40;88.90;;;;;;2042059;29;20334;-73
2021/07/30 01:32:06;;;;;;;1.40;1.30;;;11.40;88.80;;;;;;2041207;29;20678;-72
2021/07/30 01:33:07;;;;;;;1.40;1.30;;;11.40;89.10;;;;;;2041289;29;20204;-73
2021/07/30 01:34:08;;;;;;;1.97;1.67;;;11.40;89.10;;;;;;2041718;29;20183;-72
2021/07/30 01:35:09;;;;;;;1.53;1.23;;;11.40;89.60;;;;;;2041281;29;20184;-72
2021/07/30 01:36:10;;;;;;;10.57;1.52;;;11.30;89.70;;;;;;2033414;29;20668;-72
2021/07/30 01:37:11;;;;;;;0.93;0.90;;;11.30;89.70;;;;;;2041228;29;20187;-73
2021/07/30 01:38:12;;;;;;;1.13;1.13;;;11.30;89.60;;;;;;2041749;29;20187;-73
2021/07/30 01:39:12;;;;;;;4.20;1.13;;;11.30;89.60;;;;;;2041723;29;20187;-72
2021/07/30 01:40:14;;;;;;;1.70;1.60;;;11.30;89.40;;;;;;2041198;29;20228;-73
2021/07/30 01:41:15;;;;;;;1.25;1.15;;;11.30;89.10;;;;;;2041266;28;20738;-73
2021/07/30 01:42:16;;;;;;;2.00;1.67;;;11.20;89.00;;;;;;2049043;29;20174;-72
2021/07/30 01:43:17;;;;;;;1.77;1.37;;;11.20;89.00;;;;;;2041176;29;20273;-73
2021/07/30 01:44:17;;;;;;;6.13;1.60;;;11.20;89.00;;;;;;2033367;29;20266;-72
2021/07/30 01:45:18;;;;;;;1.40;1.30;;;11.20;89.20;;;;;;2041185;29;20741;-73
2021/07/30 01:46:19;;;;;;;2.40;1.37;;;11.20;89.50;;;;;;2049255;29;20186;-72
2021/07/30 01:47:20;;;;;;;1.00;1.00;;;11.20;89.60;;;;;;2041041;29;20196;-73
2021/07/30 01:48:21;;;;;;;1.10;1.02;;;11.20;89.60;;;;;;2033477;29;20204;-73
2021/07/30 01:49:21;;;;;;;1.17;1.07;;;11.20;89.50;;;;;;2032958;29;20184;-72
2021/07/30 01:50:22;;;;;;;1.80;1.20;;;11.10;89.50;;;;;;2033180;29;20190;-72
2021/07/30 01:51:23;;;;;;;0.93;0.90;;;11.10;89.50;;;;;;2033072;29;20181;-72
2021/07/30 01:52:23;;;;;;;1.43;1.33;;;11.10;89.50;;;;;;2041102;29;20581;-72
2021/07/30 01:53:24;;;;;;;2.87;1.67;;;11.10;89.80;;;;;;2049054;29;20168;-73
2021/07/30 01:54:25;;;;;;;1.53;1.17;;;11.10;90.40;;;;;;2048986;29;20195;-72
2021/07/30 01:55:25;;;;;;;1.60;1.20;;;11.10;89.70;;;;;;2041515;29;20168;-73
2021/07/30 01:56:26;;;;;;;2.07;1.37;;;11.10;89.70;;;;;;2041156;29;20602;-72
2021/07/30 01:57:27;;;;;;;1.50;1.40;;;11.10;89.80;;;;;;2033120;29;20195;-72
2021/07/30 01:58:28;;;;;;;1.83;1.63;;;11.10;89.70;;;;;;2041133;29;20176;-72
2021/07/30 01:59:29;;;;;;;1.37;1.27;;;11.10;89.40;;;;;;2041578;29;20212;-72
2021/07/30 02:00:29;;;;;;;2.63;1.57;;;11.10;89.50;;;;;;2041108;29;20208;-72
2021/07/30 02:01:30;;;;;;;1.30;1.20;;;11.10;89.90;;;;;;2040796;29;20286;-72
2021/07/30 02:02:34;;;;;;;1.83;1.70;;;11.10;90.40;;;;;;2040692;29;20195;-73
2021/07/30 02:03:35;;;;;;;1.95;1.50;;;11.10;90.00;;;;;;2045375;28;20245;-73
2021/07/30 02:04:36;;;;;;;1.57;1.47;;;11.10;90.00;;;;;;2056843;28;20194;-72
2021/07/30 02:05:38;;;;;;;1.27;1.23;;;11.10;90.00;;;;;;2057154;28;20196;-73
2021/07/30 02:06:38;;;;;;;1.27;1.25;;;11.00;89.80;;;;;;2056909;28;20220;-73
2021/07/30 02:07:39;;;;;;;1.23;1.20;;;11.10;89.70;;;;;;2043775;29;20259;-72
2021/07/30 02:08:40;;;;;;;0.90;0.90;;;11.00;89.70;;;;;;2040959;29;20191;-72
2021/07/30 02:09:40;;;;;;;5.03;1.47;;;11.00;89.60;;;;;;2048920;29;20238;-72
2021/07/30 02:10:41;;;;;;;1.27;1.17;;;11.00;90.40;;;;;;2049047;29;20180;-71
2021/07/30 02:11:43;;;;;;;1.30;1.20;;;11.00;90.00;;;;;;2049346;28;20298;-72
2021/07/30 02:14:16;;;;;;;1.52;1.25;;;11.00;90.10;;;;;;2051433;28;20327;-73
2021/07/30 02:15:17;;;;;;;3.17;1.55;;;11.00;90.20;;;;;;2048967;29;20176;-73
2021/07/30 02:16:17;;;;;;;3.17;1.37;;;11.00;90.20;;;;;;2049057;29;20171;-72
2021/07/30 02:17:18;;;;;;;1.80;1.43;;;11.00;90.00;;;;;;2048655;29;20179;-72
2021/07/30 02:18:19;;;;;;;2.00;1.07;;;11.00;89.60;;;;;;2041022;29;20597;-73
2021/07/30 02:19:22;;;;;;;0.70;0.70;;;11.00;89.50;;;;;;2048852;29;20241;-72
2021/07/30 02:20:22;;;;;;;1.48;1.38;;;11.00;89.40;;;;;;2056806;28;20185;-72
2021/07/30 02:21:23;;;;;;;1.50;1.40;;;11.00;89.10;;;;;;2048886;29;20290;-72
2021/07/30 02:22:24;;;;;;;1.70;1.60;;;11.00;89.20;;;;;;2040738;29;20307;-73
2021/07/30 02:23:24;;;;;;;2.43;1.70;;;11.00;89.40;;;;;;2048813;29;20187;-73
2021/07/30 02:24:25;;;;;;;1.00;1.00;;;11.00;89.10;;;;;;2049439;29;20175;-73
2021/07/30 02:25:26;;;;;;;1.47;1.17;;;11.00;90.20;;;;;;2048891;29;20722;-72
2021/07/30 02:26:27;;;;;;;1.40;1.30;;;11.00;89.20;;;;;;2048873;28;20643;-73
2021/07/30 02:27:28;;;;;;;1.37;1.27;;;11.00;89.00;;;;;;2048660;29;20183;-72
2021/07/30 02:28:28;;;;;;;1.35;1.15;;;11.10;88.90;;;;;;2048801;28;20210;-73
2021/07/30 02:29:29;;;;;;;1.27;1.27;;;11.00;89.10;;;;;;2056721;28;20183;-72
2021/07/30 02:30:30;;;;;;;2.53;1.53;;;11.00;89.50;;;;;;2048789;28;20203;-72
2021/07/30 02:31:31;;;;;;;1.13;0.93;;;11.00;89.80;;;;;;2048678;29;20652;-72
2021/07/30 02:32:32;;;;;;;1.23;1.17;;;11.00;89.80;;;;;;2056630;28;20302;-72
2021/07/30 02:33:32;;;;;;;1.40;1.00;;;11.00;89.70;;;;;;2049219;28;20183;-72
2021/07/30 02:34:33;;;;;;;1.93;1.83;;;11.00;89.80;;;;;;2048590;28;20199;-72
2021/07/30 02:35:34;;;;;;;1.17;1.07;;;10.90;89.90;;;;;;2048786;29;20285;-72
2021/07/30 02:36:35;;;;;;;2.13;1.17;;;10.90;89.80;;;;;;2049391;28;20176;-72
2021/07/30 02:37:36;;;;;;;1.00;1.00;;;10.90;89.60;;;;;;2048592;29;20194;-72
2021/07/30 02:38:37;;;;;;;1.00;1.00;;;10.90;89.50;;;;;;2048665;29;20183;-72
2021/07/30 02:39:37;;;;;;;1.53;1.43;;;10.90;89.60;;;;;;2048714;29;20273;-72
2021/07/30 02:40:38;;;;;;;1.47;1.37;;;10.90;89.70;;;;;;2048771;29;20211;-71
2021/07/30 02:41:39;;;;;;;2.07;1.60;;;10.90;90.00;;;;;;2056662;28;20182;-73
2021/07/30 02:42:39;;;;;;;1.17;1.07;;;10.90;90.00;;;;;;2048594;29;20192;-72
2021/07/30 02:43:40;;;;;;;2.67;1.70;;;10.80;90.00;;;;;;2048616;29;20175;-72
2021/07/30 02:44:41;;;;;;;0.53;0.53;;;10.80;90.00;;;;;;2049262;28;20184;-73
2021/07/30 02:45:41;;;;;;;1.93;1.83;;;10.80;90.00;;;;;;2048702;29;20561;-73
2021/07/30 02:46:42;;;;;;;1.37;1.27;;;10.80;90.00;;;;;;2048630;28;20183;-71
2021/07/30 02:47:43;;;;;;;2.30;2.17;;;10.90;90.00;;;;;;2056471;28;20185;-73
2021/07/30 02:48:44;;;;;;;1.87;1.37;;;10.90;90.10;;;;;;2049130;28;20178;-72
2021/07/30 02:49:45;;;;;;;1.73;1.63;;;10.90;90.10;;;;;;2048343;29;20175;-72
2021/07/30 02:50:48;;;;;;;1.67;1.57;;;10.90;90.10;;;;;;2048556;29;20263;-73
2021/07/30 02:51:49;;;;;;;3.15;1.27;;;10.80;90.10;;;;;;2056234;28;20250;-73
2021/07/30 02:52:50;;;;;;;0.90;0.90;;;10.90;90.10;;;;;;2049137;28;20246;-72
2021/07/30 02:53:50;;;;;;;1.33;1.23;;;10.80;90.20;;;;;;2048525;29;20297;-72
2021/07/30 02:54:51;;;;;;;2.47;1.17;;;10.80;90.20;;;;;;2048451;29;20180;-72
2021/07/30 02:55:52;;;;;;;1.17;1.17;;;10.90;90.20;;;;;;2040642;29;20677;-73
2021/07/30 02:56:53;;;;;;;1.57;1.47;;;10.90;90.10;;;;;;2048347;29;20179;-73
2021/07/30 02:57:53;;;;;;;1.33;1.23;;;10.80;90.00;;;;;;2049221;28;20619;-75
2021/07/30 02:58:54;;;;;;;1.67;1.57;;;10.90;90.10;;;;;;2048627;29;20289;-73
2021/07/30 02:59:55;;;;;;;1.17;1.07;;;10.80;90.10;;;;;;2053207;29;20200;-72
2021/07/30 03:00:55;;;;;;;0.90;0.90;;;10.90;90.10;;;;;;2055222;28;20176;-72
2021/07/30 03:01:56;;;;;;;2.00;1.07;;;10.90;90.10;;;;;;2051774;29;20219;-74
2021/07/30 03:02:57;;;;;;;3.23;1.53;;;10.90;90.10;;;;;;2048267;29;20217;-73
2021/07/30 03:03:57;;;;;;;1.33;1.27;;;10.80;90.10;;;;;;2048195;29;20650;-73
2021/07/30 03:04:58;;;;;;;1.10;1.10;;;10.80;90.10;;;;;;2048305;29;20261;-73
2021/07/30 03:06:00;;;;;;;2.83;1.43;;;10.80;90.10;;;;;;2048339;29;20549;-73
2021/07/30 03:07:00;;;;;;;2.63;2.42;;;10.80;90.20;;;;;;2048372;28;20196;-73
2021/07/30 03:08:01;;;;;;;1.43;1.33;;;10.80;90.30;;;;;;2056242;28;20197;-73
2021/07/30 03:09:02;;;;;;;1.13;1.13;;;10.80;90.30;;;;;;2040393;29;20188;-73
2021/07/30 03:10:03;;;;;;;0.83;0.83;;;10.80;90.30;;;;;;2048207;29;20179;-73
2021/07/30 03:11:04;;;;;;;1.52;1.42;;;10.80;90.30;;;;;;2048220;29;20197;-72
2021/07/30 03:12:06;;;;;;;1.53;1.30;;;10.80;90.50;;;;;;2048188;29;20207;-73
2021/07/30 03:13:06;;;;;;;1.70;1.40;;;10.80;90.40;;;;;;2048122;28;20211;-73
2021/07/30 03:14:07;;;;;;;1.73;1.60;;;10.80;90.30;;;;;;2040301;29;20183;-73
2021/07/30 03:15:08;;;;;;;1.87;0.90;;;10.80;90.20;;;;;;2048336;29;20291;-73
2021/07/30 03:16:11;;;;;;;1.00;1.00;;;10.80;90.10;;;;;;2048072;29;20650;-73
2021/07/30 03:17:11;;;;;;;1.85;1.55;;;10.80;90.00;;;;;;2039817;29;20186;-73
2021/07/30 03:18:12;;;;;;;2.23;0.90;;;10.80;90.10;;;;;;2048171;29;20678;-73
2021/07/30 03:19:13;;;;;;;1.03;1.00;;;10.80;90.10;;;;;;2056148;28;20234;-73
2021/07/30 03:20:13;;;;;;;0.90;0.90;;;10.80;90.10;;;;;;2056188;28;20175;-73
2021/07/30 03:21:14;;;;;;;1.83;1.17;;;10.80;90.10;;;;;;2048084;28;20535;-73
2021/07/30 03:22:15;;;;;;;1.73;1.63;;;10.80;90.20;;;;;;2048113;29;20212;-73
2021/07/30 03:23:16;;;;;;;3.00;1.13;;;10.80;90.20;;;;;;2056248;28;20669;-72
2021/07/30 03:24:16;;;;;;;1.73;1.63;;;10.80;90.30;;;;;;2048069;29;20183;-73
2021/07/30 03:25:17;;;;;;;1.10;1.10;;;10.70;90.20;;;;;;2040199;29;20196;-73
2021/07/30 03:26:18;;;;;;;1.77;1.67;;;10.70;90.10;;;;;;2040070;29;20203;-72
2021/07/30 03:27:18;;;;;;;1.50;1.40;;;10.70;90.20;;;;;;2040174;29;20192;-72
2021/07/30 03:28:19;;;;;;;1.10;1.10;;;10.70;90.40;;;;;;2048172;29;20176;-73
2021/07/30 03:29:21;;;;;;;1.40;0.90;;;10.70;90.50;;;;;;2048135;29;20195;-72
2021/07/30 03:30:22;;;;;;;1.40;1.20;;;10.70;90.60;;;;;;2048059;29;20182;-73
2021/07/30 03:31:22;;;;;;;1.03;1.03;;;10.70;90.70;;;;;;2048083;28;20748;-73
2021/07/30 03:32:23;;;;;;;1.87;1.77;;;10.60;90.60;;;;;;2047919;29;20781;-73
2021/07/30 03:33:24;;;;;;;1.07;0.93;;;10.70;90.50;;;;;;2048315;29;20576;-73
2021/07/30 03:34:25;;;;;;;1.50;1.27;;;10.70;90.50;;;;;;2048019;29;20269;-72
2021/07/30 03:35:26;;;;;;;1.20;1.10;;;10.70;91.00;;;;;;2048190;29;20187;-72
2021/07/30 03:36:27;;;;;;;1.20;1.10;;;10.70;90.40;;;;;;2048118;29;20207;-73
2021/07/30 03:37:27;;;;;;;1.77;1.60;;;10.70;90.30;;;;;;2040059;29;20272;-73
2021/07/30 03:38:28;;;;;;;1.10;1.10;;;10.70;90.30;;;;;;2040186;29;20613;-72
2021/07/30 03:39:29;;;;;;;0.97;0.97;;;10.70;90.30;;;;;;2040318;29;20184;-73
2021/07/30 03:40:30;;;;;;;4.77;1.60;;;10.70;90.40;;;;;;2048290;29;20286;-73
2021/07/30 03:41:30;;;;;;;0.80;0.80;;;10.70;90.30;;;;;;2056312;28;20183;-72
2021/07/30 03:42:31;;;;;;;1.10;1.10;;;10.70;90.30;;;;;;2048437;29;20235;-73
2021/07/30 03:43:32;;;;;;;1.10;1.00;;;10.70;90.30;;;;;;2048208;28;20243;-73
2021/07/30 03:44:33;;;;;;;17.92;1.52;;;10.70;90.30;;;;;;2056391;28;20262;-73
2021/07/30 03:45:34;;;;;;;1.83;1.20;;;10.70;90.30;;;;;;2056439;28;20178;-75
2021/07/30 03:46:34;;;;;;;1.53;1.43;;;10.70;90.30;;;;;;2048491;29;20178;-73
2021/07/30 03:47:35;;;;;;;0.80;0.80;;;10.70;90.30;;;;;;2040332;29;20195;-73
2021/07/30 03:48:36;;;;;;;1.80;1.67;;;10.60;90.30;;;;;;2048385;28;20187;-73
2021/07/30 03:49:37;;;;;;;2.03;1.48;;;10.60;90.40;;;;;;2048037;29;20183;-73
2021/07/30 03:50:38;;;;;;;2.50;1.47;;;10.60;90.40;;;;;;2048360;29;20198;-73
2021/07/30 03:51:38;;;;;;;1.30;1.20;;;10.60;90.40;;;;;;2048070;28;20651;-73
2021/07/30 03:52:39;;;;;;;0.90;0.90;;;10.60;90.20;;;;;;2040443;29;20255;-73
2021/07/30 03:53:40;;;;;;;1.13;1.10;;;10.70;90.10;;;;;;2032482;29;20196;-73
2021/07/30 03:54:41;;;;;;;3.90;1.47;;;10.70;90.10;;;;;;2040427;29;20173;-73
2021/07/30 03:55:43;;;;;;;0.90;0.90;;;10.70;90.10;;;;;;2056223;28;20233;-73
2021/07/30 03:56:44;;;;;;;1.42;1.30;;;10.70;90.00;;;;;;2056487;28;20652;-73
2021/07/30 03:57:44;;;;;;;1.75;0.95;;;10.70;90.00;;;;;;2056138;28;20261;-73
2021/07/30 03:58:47;;;;;;;1.63;1.27;;;10.60;89.80;;;;;;2056340;28;20178;-73
2021/07/30 03:59:48;;;;;;;0.80;0.80;;;10.60;89.80;;;;;;2056203;28;20623;-73
2021/07/30 04:00:48;;;;;;;1.33;1.23;;;10.60;89.90;;;;;;2056372;28;20233;-72
2021/07/30 04:01:49;;;;;;;1.47;1.37;;;10.70;90.00;;;;;;2048901;29;20197;-73
2021/07/30 04:02:50;;;;;;;0.87;0.87;;;10.70;89.90;;;;;;2048726;28;20232;-73
2021/07/30 04:03:50;;;;;;;1.53;1.43;;;10.70;89.90;;;;;;2048854;28;20214;-72
2021/07/30 04:04:51;;;;;;;1.30;1.07;;;10.70;89.90;;;;;;2048194;29;20187;-73
2021/07/30 04:05:52;;;;;;;1.20;1.13;;;10.70;90.00;;;;;;2032271;29;20200;-73
2021/07/30 04:06:53;;;;;;;2.00;1.07;;;10.70;90.00;;;;;;2032333;29;20263;-73
2021/07/30 04:07:53;;;;;;;1.23;1.17;;;10.60;90.00;;;;;;2047954;29;20633;-73
2021/07/30 04:08:54;;;;;;;1.23;1.23;;;10.70;90.10;;;;;;2046940;29;20277;-73
2021/07/30 04:09:55;;;;;;;2.40;1.40;;;10.60;90.20;;;;;;2056034;28;20273;-72
2021/07/30 04:10:58;;;;;;;3.03;1.10;;;10.70;90.20;;;;;;2056741;28;20185;-73
2021/07/30 04:11:58;;;;;;;1.40;1.17;;;10.70;90.30;;;;;;2056164;28;20218;-73
2021/07/30 04:12:59;;;;;;;3.27;2.53;;;10.70;90.20;;;;;;2056215;28;20695;-73
2021/07/30 04:13:59;;;;;;;1.23;1.17;;;10.70;90.20;;;;;;2056668;28;20194;-73
2021/07/30 04:15:00;;;;;;;1.20;1.10;;;10.70;90.20;;;;;;2056100;28;20177;-73
2021/07/30 04:16:06;;;;;;;1.50;1.40;;;10.70;90.20;;;;;;2056305;28;20175;-72
2021/07/30 04:17:08;;;;;;;2.55;1.75;;;10.70;90.20;;;;;;2063942;28;20173;-72
2021/07/30 04:18:08;;;;;;;1.10;1.00;;;10.70;90.20;;;;;;2063935;28;20185;-72
2021/07/30 04:19:09;;;;;;;1.33;1.23;;;10.70;90.20;;;;;;2056590;28;20186;-72
2021/07/30 04:20:10;;;;;;;1.50;1.43;;;10.70;90.10;;;;;;2055843;28;20182;-73
2021/07/30 04:21:11;;;;;;;1.40;1.00;;;10.70;90.10;;;;;;2048257;28;20185;-73
2021/07/30 04:22:13;;;;;;;2.43;1.33;;;10.70;90.10;;;;;;2047902;29;20182;-73
2021/07/30 04:23:13;;;;;;;1.48;1.10;;;10.80;90.10;;;;;;2039977;29;20566;-73
2021/07/30 04:24:14;;;;;;;7.10;1.17;;;10.80;90.00;;;;;;2047979;29;20222;-73
2021/07/30 04:25:15;;;;;;;2.00;1.70;;;10.80;90.00;;;;;;2056437;28;20186;-72
2021/07/30 04:26:15;;;;;;;1.93;1.80;;;10.80;89.90;;;;;;2056510;28;20708;-72
2021/07/30 04:27:16;;;;;;;0.70;0.70;;;10.80;90.00;;;;;;2056495;28;20186;-73
2021/07/30 04:28:17;;;;;;;1.50;1.40;;;10.80;90.00;;;;;;2056859;28;20182;-72
2021/07/30 04:29:17;;;;;;;1.30;1.20;;;10.80;90.00;;;;;;2058138;28;20216;-72
2021/07/30 04:30:18;;;;;;;1.70;0.97;;;10.80;90.10;;;;;;2058200;28;20217;-73
2021/07/30 04:31:19;;;;;;;1.50;1.40;;;10.90;90.10;;;;;;2058077;28;20641;-73
2021/07/30 04:32:20;;;;;;;0.82;0.82;;;10.90;90.10;;;;;;2057963;28;20218;-73
2021/07/30 04:33:20;;;;;;;0.73;0.73;;;10.90;90.10;;;;;;2058003;28;20359;-73
2021/07/30 04:34:21;;;;;;;1.30;1.20;;;10.90;90.10;;;;;;2058166;28;20202;-72
2021/07/30 04:35:22;;;;;;;10.10;1.30;;;10.90;90.10;;;;;;2058054;28;20171;-73
2021/07/30 04:36:23;;;;;;;1.20;1.20;;;10.90;90.00;;;;;;2057436;28;20282;-73
2021/07/30 04:37:23;;;;;;;1.33;1.23;;;10.90;90.00;;;;;;2049294;28;20706;-72
2021/07/30 04:38:24;;;;;;;1.20;1.10;;;11.00;90.00;;;;;;2057460;28;20253;-73
2021/07/30 04:39:25;;;;;;;1.27;1.23;;;11.00;90.00;;;;;;2049292;29;20180;-73
2021/07/30 04:40:25;;;;;;;1.83;1.43;;;11.00;90.00;;;;;;2057512;28;20636;-72
2021/07/30 04:41:26;;;;;;;0.83;0.83;;;11.00;90.00;;;;;;2057934;28;20175;-73
2021/07/30 04:42:27;;;;;;;0.93;0.93;;;11.00;90.00;;;;;;2057951;28;20182;-73
2021/07/30 04:43:28;;;;;;;1.33;1.23;;;11.00;90.10;;;;;;2058003;28;20605;-73
2021/07/30 04:44:28;;;;;;;1.20;1.10;;;11.00;90.00;;;;;;2057483;28;20182;-73
2021/07/30 04:45:29;;;;;;;2.50;0.93;;;11.00;90.00;;;;;;2057391;28;20642;-73
2021/07/30 04:46:30;;;;;;;3.67;1.47;;;11.00;90.00;;;;;;2057839;28;20186;-72
2021/07/30 04:47:31;;;;;;;0.93;0.83;;;11.00;90.00;;;;;;2048855;29;20191;-73
2021/07/30 04:48:32;;;;;;;2.28;1.25;;;11.10;89.90;;;;;;2041530;28;20316;-73
2021/07/30 04:49:33;;;;;;;2.00;1.10;;;11.10;89.90;;;;;;2057105;28;20211;-73
2021/07/30 04:50:34;;;;;;;1.50;1.40;;;11.10;90.00;;;;;;2057969;28;20238;-73
2021/07/30 04:51:35;;;;;;;1.55;1.45;;;11.10;90.10;;;;;;2049112;28;20192;-72
2021/07/30 04:52:35;;;;;;;2.30;1.37;;;11.10;90.10;;;;;;2049289;28;20234;-73
2021/07/30 04:53:36;;;;;;;1.90;1.17;;;11.10;90.10;;;;;;2065303;28;20257;-73
2021/07/30 04:54:37;;;;;;;1.97;1.77;;;11.10;90.10;;;;;;2065397;28;20555;-72
2021/07/30 04:55:38;;;;;;;2.20;1.47;;;11.20;90.00;;;;;;2054725;28;20179;-73
2021/07/30 04:56:38;;;;;;;1.80;1.43;;;11.20;90.00;;;;;;2048937;29;20191;-73
2021/07/30 04:57:39;;;;;;;1.23;1.13;;;11.30;90.00;;;;;;2048939;29;20789;-73
2021/07/30 04:58:40;;;;;;;1.77;1.67;;;11.30;89.80;;;;;;2054988;29;20199;-72
2021/07/30 04:59:40;;;;;;;1.27;1.17;;;11.40;89.50;;;;;;2056872;29;20714;-72
2021/07/30 05:00:41;;;;;;;1.40;1.30;;;11.40;89.40;;;;;;2053712;28;20206;-73
2021/07/30 05:01:42;;;;;;;0.90;0.87;;;11.40;89.50;;;;;;2049983;28;20184;-73
2021/07/30 05:02:42;;;;;;;1.23;1.13;;;11.40;89.50;;;;;;2049338;29;20221;-73
2021/07/30 05:03:43;;;;;;;1.60;1.30;;;11.40;89.40;;;;;;2049833;29;20658;-73
2021/07/30 05:04:44;;;;;;;0.80;0.80;;;11.50;89.50;;;;;;2049145;29;20179;-73
2021/07/30 05:05:45;;;;;;;1.67;1.57;;;11.50;89.60;;;;;;2041396;29;20228;-73
2021/07/30 05:06:46;;;;;;;0.80;0.80;;;11.50;89.80;;;;;;2041220;29;20218;-73
2021/07/30 05:07:47;;;;;;;2.70;1.20;;;11.50;89.90;;;;;;2041337;29;20191;-73
2021/07/30 05:08:48;;;;;;;3.45;1.38;;;11.50;90.00;;;;;;2049032;29;20175;-73
2021/07/30 05:09:49;;;;;;;1.70;1.60;;;11.60;90.00;;;;;;2049066;29;20176;-73
2021/07/30 05:10:50;;;;;;;2.90;1.13;;;11.60;90.00;;;;;;2049034;29;20319;-73
2021/07/30 05:11:50;;;;;;;1.45;1.35;;;11.60;89.90;;;;;;2049730;29;20652;-72
2021/07/30 05:12:51;;;;;;;1.90;1.17;;;11.70;90.00;;;;;;2049060;29;20196;-72
2021/07/30 05:13:52;;;;;;;1.17;1.07;;;11.70;89.90;;;;;;2041167;29;20188;-73
2021/07/30 05:14:52;;;;;;;1.30;1.20;;;11.80;89.90;;;;;;2041153;29;20640;-72
2021/07/30 05:15:53;;;;;;;1.43;1.33;;;11.90;89.90;;;;;;2049212;29;20190;-72
2021/07/30 05:16:54;;;;;;;4.03;1.00;;;11.90;89.80;;;;;;2048900;29;20187;-73
2021/07/30 05:17:54;;;;;;;0.80;0.77;;;11.90;89.70;;;;;;2041235;29;20189;-73
2021/07/30 05:18:55;;;;;;;2.10;1.30;;;11.90;89.70;;;;;;2041150;29;20513;-73